Time;durP1;ratioP1;P1;durP2;ratioP2;P2;SDS_P1;SDS_P2;PMS_P1;PMS_P2;Temp;Humidity;BMP_temperature;BMP_pressure;BME280_temperature;BME280_humidity;BME280_pressure;Samples;Min_cycle;Max_cycle;Signal;HPM_P1;HPM_P2
2022/09/04 00:00:14;;;;;;;2.80;2.60;;;;;;;13.30;96.29;94971.13;1563784;90;21009;-55
2022/09/04 00:03:09;;;;;;;2.85;2.60;;;;;;;13.31;96.71;94979.59;1565880;91;21304;-54
2022/09/04 00:05:44;;;;;;;2.42;2.22;;;;;;;13.37;96.44;94979.73;1565907;91;21020;-55
2022/09/04 00:08:32;;;;;;;5.47;2.50;;;;;;;13.41;96.11;94981.75;1561586;91;21201;-55
2022/09/04 00:11:23;;;;;;;2.60;2.40;;;;;;;13.41;95.66;94978.36;1565911;91;21028;-55
2022/09/04 00:14:00;;;;;;;3.35;2.85;;;;;;;13.38;95.55;94984.03;1566086;91;21015;-55
2022/09/04 00:16:45;;;;;;;4.15;2.80;;;;;;;13.36;95.73;94977.59;1566168;90;21147;-55
2022/09/04 00:19:30;;;;;;;3.42;2.60;;;;;;;13.37;95.65;94975.59;1563109;91;21050;-55
2022/09/04 00:22:01;;;;;;;4.83;2.33;;;;;;;13.36;95.78;94976.81;1562171;91;21086;-54
2022/09/04 00:24:35;;;;;;;4.00;2.60;;;;;;;13.37;95.96;94985.26;1566326;90;21036;-55
2022/09/04 00:27:19;;;;;;;2.75;2.55;;;;;;;13.37;96.13;94986.64;1565842;91;21465;-55
2022/09/04 00:30:06;;;;;;;3.22;2.33;;;;;;;13.37;95.84;94988.80;1565474;91;21198;-55
2022/09/04 00:32:56;;;;;;;2.77;2.45;;;;;;;13.36;95.69;94991.41;1578518;89;20905;-55
2022/09/04 00:35:43;;;;;;;2.20;2.10;;;;;;;13.36;95.50;94992.02;1600048;89;21056;-55
2022/09/04 00:38:27;;;;;;;2.65;2.45;;;;;;;13.42;95.67;94991.58;1575231;89;21494;-54
2022/09/04 00:41:44;;;;;;;4.40;2.25;;;;;;;13.42;95.38;94995.09;1587008;89;21118;-55
2022/09/04 00:44:35;;;;;;;2.95;2.55;;;;;;;13.39;95.14;94997.41;1577255;89;21279;-55
2022/09/04 00:47:30;;;;;;;2.67;2.50;;;;;;;13.39;95.34;94999.38;1585274;88;21062;-54
2022/09/04 00:50:24;;;;;;;2.70;2.50;;;;;;;13.43;95.76;94998.64;1590276;89;21069;-55
2022/09/04 00:53:16;;;;;;;2.98;2.70;;;;;;;13.46;95.66;94994.95;1588441;89;21060;-55
2022/09/04 00:56:14;;;;;;;3.80;2.52;;;;;;;13.48;95.29;94992.50;1597505;89;21525;-55
2022/09/04 00:58:55;;;;;;;2.50;2.30;;;;;;;13.47;95.14;94993.73;1540136;91;21261;-55
2022/09/04 01:01:25;;;;;;;4.90;3.08;;;;;;;13.47;95.20;94992.34;1566699;91;20994;-55
2022/09/04 01:04:23;;;;;;;2.35;2.20;;;;;;;13.46;95.10;94989.42;1566391;91;21011;-54
2022/09/04 01:07:25;;;;;;;2.67;2.50;;;;;;;13.46;95.24;94996.34;1563606;91;21228;-54
2022/09/04 01:10:13;;;;;;;3.42;2.30;;;;;;;13.42;95.04;94992.97;1566152;91;20991;-55
2022/09/04 01:13:08;;;;;;;2.35;2.25;;;;;;;13.37;95.02;94988.02;1562163;90;21296;-56
2022/09/04 01:15:48;;;;;;;2.72;2.50;;;;;;;13.33;95.08;94986.81;1565630;91;21099;-55
2022/09/04 01:18:37;;;;;;;2.70;2.50;;;;;;;13.33;95.41;94988.79;1565025;91;21092;-55
2022/09/04 01:21:43;;;;;;;3.67;2.62;;;;;;;13.33;95.58;94994.31;1565368;90;21015;-55
2022/09/04 01:24:33;;;;;;;2.52;2.33;;;;;;;13.32;95.62;94990.02;1565819;91;21118;-55
2022/09/04 01:27:08;;;;;;;2.65;2.30;;;;;;;13.30;95.47;94998.00;1564110;91;21317;-55
2022/09/04 01:29:50;;;;;;;3.77;2.55;;;;;;;13.29;95.64;94993.70;1565768;91;21528;-56
2022/09/04 01:32:50;;;;;;;2.90;2.70;;;;;;;13.28;95.60;94994.93;1565573;91;21584;-54
2022/09/04 01:35:50;;;;;;;2.90;2.70;;;;;;;13.24;95.84;94992.30;1565357;91;21120;-54
2022/09/04 01:38:31;;;;;;;2.47;2.27;;;;;;;13.23;95.86;94995.55;1565664;91;21108;-55
2022/09/04 01:41:19;;;;;;;2.85;2.33;;;;;;;13.20;95.84;94988.14;1563215;91;21314;-54
2022/09/04 01:43:47;;;;;;;3.65;2.60;;;;;;;13.23;96.50;94991.40;1565748;91;21069;-55
2022/09/04 01:46:55;;;;;;;3.47;3.17;;;;;;;13.31;96.76;94982.95;1565889;91;21493;-54
2022/09/04 01:49:42;;;;;;;2.98;2.60;;;;;;;13.35;96.21;94989.09;1563504;91;21050;-54
2022/09/04 01:52:35;;;;;;;4.65;2.55;;;;;;;13.23;95.56;94992.78;1564882;90;21020;-55
2022/09/04 01:55:11;;;;;;;2.83;2.62;;;;;;;13.15;95.94;94993.69;1566347;91;21261;-55
2022/09/04 01:58:00;;;;;;;4.72;2.60;;;;;;;13.16;96.58;94987.53;1559605;91;21223;-55
2022/09/04 02:00:29;;;;;;;2.65;2.45;;;;;;;13.20;96.59;94997.81;1565792;91;21064;-55
2022/09/04 02:03:07;;;;;;;3.40;2.47;;;;;;;13.21;96.53;94992.44;1565657;91;21084;-55
2022/09/04 02:05:52;;;;;;;3.05;2.50;;;;;;;13.24;96.51;94990.17;1595009;88;21160;-54
2022/09/04 02:08:37;;;;;;;2.75;2.55;;;;;;;13.23;96.22;94993.53;1589307;88;21295;-54
2022/09/04 02:11:19;;;;;;;2.33;2.22;;;;;;;13.20;96.20;94993.67;1587087;89;21046;-55
2022/09/04 02:14:10;;;;;;;2.85;2.65;;;;;;;13.20;96.81;94988.14;1569082;89;21053;-55
2022/09/04 02:17:06;;;;;;;7.00;3.30;;;;;;;13.23;97.04;94990.77;1589114;88;21676;-55
2022/09/04 02:19:48;;;;;;;5.08;3.12;;;;;;;13.25;96.68;94988.95;1585873;88;21643;-54
2022/09/04 02:22:54;;;;;;;3.00;2.80;;;;;;;13.23;96.49;94993.53;1594368;88;21268;-54
2022/09/04 02:25:30;;;;;;;3.17;2.80;;;;;;;13.22;96.79;94992.59;1598829;89;21024;-55
2022/09/04 02:28:25;;;;;;;3.80;2.47;;;;;;;13.20;97.00;94995.05;1600751;88;21099;-55
2022/09/04 02:31:15;;;;;;;2.70;2.50;;;;;;;13.16;97.02;94990.30;1591523;88;21614;-55
2022/09/04 02:34:05;;;;;;;2.25;2.15;;;;;;;13.16;97.09;94990.30;1587332;88;21046;-55
2022/09/04 02:37:18;;;;;;;2.52;2.30;;;;;;;13.17;97.22;94993.20;1591046;88;21741;-54
2022/09/04 02:40:17;;;;;;;2.47;2.27;;;;;;;13.15;97.26;94983.23;1591849;89;21609;-55
2022/09/04 02:43:06;;;;;;;3.00;2.70;;;;;;;13.11;97.34;94984.00;1586825;89;21118;-55
2022/09/04 02:46:06;;;;;;;4.75;2.52;;;;;;;13.07;97.62;94984.77;1586048;89;21589;-54
2022/09/04 02:49:08;;;;;;;3.15;2.22;;;;;;;13.07;97.81;94987.52;1591202;89;21008;-55
2022/09/04 02:52:18;;;;;;;3.27;2.62;;;;;;;13.11;98.18;94990.91;1588683;89;21050;-54
2022/09/04 02:55:29;;;;;;;3.37;2.65;;;;;;;13.15;98.06;94990.14;1594327;88;21045;-54
2022/09/04 02:58:24;;;;;;;3.27;2.37;;;;;;;13.17;97.98;94984.92;1600888;89;21289;-55
2022/09/04 03:01:21;;;;;;;2.90;2.70;;;;;;;13.14;97.92;94988.00;1600890;89;21049;-55
2022/09/04 03:03:58;;;;;;;3.40;2.62;;;;;;;13.18;98.19;94986.45;1591155;89;21048;-55
2022/09/04 03:06:48;;;;;;;3.52;2.58;;;;;;;13.23;98.17;94981.10;1594823;89;21342;-56
2022/09/04 03:09:45;;;;;;;3.15;2.85;;;;;;;13.23;97.79;94983.86;1590875;89;21039;-53
2022/09/04 03:12:31;;;;;;;3.72;2.80;;;;;;;13.22;97.87;94989.84;1588751;88;21021;-54
2022/09/04 03:15:22;;;;;;;2.52;2.33;;;;;;;13.28;97.91;94992.17;1589759;89;21068;-54
2022/09/04 03:18:23;;;;;;;3.57;2.43;;;;;;;13.26;97.57;94984.33;1597897;89;21562;-55
2022/09/04 03:21:16;;;;;;;3.55;2.65;;;;;;;13.20;97.31;94988.14;1587041;88;21371;-55
2022/09/04 03:23:51;;;;;;;3.77;2.70;;;;;;;13.17;97.59;94987.69;1588760;89;21056;-54
2022/09/04 03:26:33;;;;;;;4.40;2.40;;;;;;;13.14;97.89;94988.00;1593140;88;21074;-55
2022/09/04 03:29:43;;;;;;;2.80;2.60;;;;;;;13.15;98.04;94992.30;1594262;88;21080;-54
2022/09/04 03:33:01;;;;;;;3.00;2.72;;;;;;;13.15;98.22;94991.52;1599935;89;21060;-55
2022/09/04 03:35:36;;;;;;;3.12;2.87;;;;;;;13.21;98.52;94993.23;1589460;88;21134;-56
2022/09/04 03:38:24;;;;;;;3.70;2.92;;;;;;;13.28;98.46;94994.93;1595705;89;21002;-55
2022/09/04 03:41:03;;;;;;;3.25;2.92;;;;;;;13.30;97.92;94988.33;1597467;88;21166;-55
2022/09/04 03:43:34;;;;;;;2.98;2.77;;;;;;;13.28;97.58;94996.31;1597230;89;21106;-56
2022/09/04 03:46:31;;;;;;;3.10;2.90;;;;;;;13.27;97.90;95001.05;1595602;88;21032;-55
2022/09/04 03:49:13;;;;;;;3.35;2.55;;;;;;;13.26;97.81;94993.24;1600032;89;21153;-55
2022/09/04 03:51:54;;;;;;;3.67;2.90;;;;;;;13.24;97.76;94992.30;1591908;88;21223;-54
2022/09/04 03:54:51;;;;;;;5.35;3.22;;;;;;;13.22;97.83;95010.56;1593504;89;21045;-54
2022/09/04 03:57:53;;;;;;;10.03;3.62;;;;;;;13.23;98.20;95004.59;1584176;89;21073;-55
2022/09/04 04:00:22;;;;;;;3.42;2.98;;;;;;;13.27;98.35;95005.20;1599570;89;21064;-54
2022/09/04 04:03:01;;;;;;;5.05;3.10;;;;;;;13.29;98.12;95005.51;1598597;89;21833;-55
2022/09/04 04:05:51;;;;;;;2.90;2.67;;;;;;;13.29;98.12;95018.57;1595933;88;21060;-54
2022/09/04 04:08:30;;;;;;;2.85;2.65;;;;;;;13.30;98.22;95014.58;1600262;89;21129;-56
2022/09/04 04:11:35;;;;;;;4.12;3.30;;;;;;;13.31;98.00;95017.50;1601013;89;21028;-54
2022/09/04 04:14:29;;;;;;;2.98;2.60;;;;;;;13.31;98.06;95018.28;1598946;89;21505;-54
2022/09/04 04:17:25;;;;;;;4.97;2.70;;;;;;;13.36;98.09;95021.03;1600124;88;21196;-55
2022/09/04 04:20:10;;;;;;;6.03;3.00;;;;;;;13.35;97.95;95025.80;1599069;89;21001;-55
2022/09/04 04:23:16;;;;;;;5.55;2.72;;;;;;;13.34;97.74;95035.92;1599185;89;21152;-55
2022/09/04 04:26:10;;;;;;;3.98;3.35;;;;;;;13.31;97.81;95034.08;1569060;91;21069;-55
2022/09/04 04:29:10;;;;;;;4.15;2.95;;;;;;;13.33;97.91;95031.63;1543837;92;21002;-54
2022/09/04 04:32:15;;;;;;;5.67;2.95;;;;;;;13.34;98.11;95030.39;1541890;91;21833;-55
2022/09/04 04:35:07;;;;;;;3.15;2.90;;;;;;;13.31;98.09;95035.45;1592057;89;21622;-54
2022/09/04 04:38:02;;;;;;;4.50;3.05;;;;;;;13.33;98.27;95029.64;1584023;88;21082;-54
2022/09/04 04:40:41;;;;;;;4.17;3.08;;;;;;;13.38;98.18;95029.63;1546713;92;21052;-55
2022/09/04 04:43:25;;;;;;;3.00;2.80;;;;;;;13.38;98.07;95033.17;1541720;92;21540;-55
2022/09/04 04:46:04;;;;;;;5.78;3.52;;;;;;;13.40;97.89;95028.55;1541922;93;21279;-55
2022/09/04 04:49:17;;;;;;;3.25;2.95;;;;;;;13.35;97.67;95034.09;1546429;92;21470;-55
2022/09/04 04:52:06;;;;;;;6.58;3.40;;;;;;;13.35;97.82;95039.63;1537882;92;21148;-54
2022/09/04 04:54:50;;;;;;;3.90;3.60;;;;;;;13.38;97.98;95039.30;1594689;89;21127;-55
2022/09/04 04:57:44;;;;;;;3.62;3.33;;;;;;;13.44;98.22;95049.92;1593133;88;21057;-55
2022/09/04 05:00:18;;;;;;;7.30;3.98;;;;;;;13.52;98.31;95047.02;1596593;88;21286;-54
2022/09/04 05:03:08;;;;;;;5.55;3.87;;;;;;;13.58;97.86;95047.93;1594697;89;21225;-55
2022/09/04 05:06:00;;;;;;;6.37;4.10;;;;;;;13.59;97.42;95050.25;1600749;89;21230;-55
2022/09/04 05:08:51;;;;;;;8.13;4.53;;;;;;;13.60;97.23;95052.41;1597415;89;21160;-54
2022/09/04 05:11:33;;;;;;;5.92;4.20;;;;;;;13.64;97.35;95048.88;1599843;89;21579;-55
2022/09/04 05:14:22;;;;;;;5.22;3.60;;;;;;;13.65;97.57;95046.27;1592891;89;21264;-56
2022/09/04 05:17:01;;;;;;;4.75;3.08;;;;;;;13.68;97.28;95051.66;1599390;89;21109;-55
2022/09/04 05:20:20;;;;;;;4.65;3.25;;;;;;;13.63;96.83;95046.72;1600739;89;21604;-55
2022/09/04 05:23:16;;;;;;;3.98;3.37;;;;;;;13.62;97.09;95050.70;1598388;89;21098;-56
2022/09/04 05:26:07;;;;;;;5.00;2.45;;;;;;;13.74;97.65;95053.17;1595343;89;21012;-56
2022/09/04 05:28:59;;;;;;;4.85;2.55;;;;;;;13.84;96.79;95056.11;1594143;89;21155;-56
2022/09/04 05:31:37;;;;;;;2.98;2.62;;;;;;;13.81;96.32;95058.42;1593355;88;21589;-56
2022/09/04 05:34:32;;;;;;;2.55;2.35;;;;;;;13.80;96.09;95061.03;1594798;89;21097;-56
2022/09/04 05:37:20;;;;;;;2.77;2.58;;;;;;;13.80;96.02;95059.66;1600161;89;21604;-55
2022/09/04 05:40:26;;;;;;;4.30;2.47;;;;;;;13.82;95.81;95062.72;1595556;89;21116;-56
2022/09/04 05:43:21;;;;;;;2.98;2.55;;;;;;;13.81;95.73;95068.10;1599829;89;21808;-55
2022/09/04 05:46:05;;;;;;;4.10;2.45;;;;;;;13.88;96.21;95073.31;1598897;88;21006;-55
2022/09/04 05:49:11;;;;;;;8.25;2.50;;;;;;;14.00;95.85;95073.16;1600667;89;21107;-56
2022/09/04 05:52:00;;;;;;;2.60;2.40;;;;;;;14.13;95.40;95082.09;1598006;89;21055;-55
2022/09/04 05:54:48;;;;;;;4.50;2.50;;;;;;;14.26;94.87;95076.42;1586982;89;21017;-56
2022/09/04 05:57:39;;;;;;;3.15;2.70;;;;;;;14.31;94.53;95069.66;1585387;88;21216;-55
2022/09/04 06:00:18;;;;;;;2.50;2.30;;;;;;;14.35;94.18;95073.66;1594307;89;21053;-55
2022/09/04 06:03:16;;;;;;;4.80;2.60;;;;;;;14.43;94.00;95070.87;1588665;88;21766;-56
2022/09/04 06:06:07;;;;;;;4.45;2.95;;;;;;;14.46;93.53;95070.56;1556767;89;21607;-55
2022/09/04 06:09:16;;;;;;;2.80;2.60;;;;;;;14.46;93.19;95073.33;1588313;89;21073;-55
2022/09/04 06:12:22;;;;;;;4.92;2.58;;;;;;;14.50;93.07;95075.31;1551860;88;21352;-56
2022/09/04 06:14:59;;;;;;;5.30;2.67;;;;;;;14.53;92.93;95080.70;1589045;89;21481;-56
2022/09/04 06:17:51;;;;;;;5.90;2.70;;;;;;;14.63;92.72;95080.83;1590347;89;21045;-55
2022/09/04 06:20:36;;;;;;;3.37;2.42;;;;;;;14.76;92.22;95078.65;1600061;89;21101;-55
2022/09/04 06:23:15;;;;;;;5.47;2.60;;;;;;;14.83;91.27;95076.17;1570316;89;21544;-56
2022/09/04 06:26:08;;;;;;;4.70;2.45;;;;;;;14.89;90.24;95079.23;1598571;89;21834;-55
2022/09/04 06:29:01;;;;;;;2.30;2.10;;;;;;;14.96;90.18;95081.66;1568728;89;21160;-55
2022/09/04 06:31:52;;;;;;;3.47;2.67;;;;;;;15.03;89.75;95085.48;1598888;88;21563;-56
2022/09/04 06:34:44;;;;;;;4.40;2.40;;;;;;;15.08;89.48;95080.70;1601407;89;21020;-56
2022/09/04 06:37:47;;;;;;;3.35;2.50;;;;;;;15.16;89.18;95082.53;1600851;89;21032;-55
2022/09/04 06:40:50;;;;;;;3.35;2.87;;;;;;;15.24;88.29;95082.33;1593795;89;21192;-56
2022/09/04 06:43:48;;;;;;;7.55;2.65;;;;;;;15.29;87.04;95085.27;1587829;89;21064;-56
2022/09/04 06:46:45;;;;;;;3.12;2.12;;;;;;;15.32;86.70;95093.27;1588397;88;21062;-55
2022/09/04 06:49:52;;;;;;;2.10;1.92;;;;;;;15.41;85.95;95096.77;1595602;88;21146;-55
2022/09/04 06:52:37;;;;;;;4.95;2.33;;;;;;;15.47;84.96;95097.66;1594716;88;21076;-56
2022/09/04 06:55:22;;;;;;;2.10;1.90;;;;;;;15.48;84.37;95093.64;1575915;89;21368;-57
2022/09/04 06:58:18;;;;;;;3.75;1.77;;;;;;;15.56;84.29;95101.75;1593184;89;21052;-55
2022/09/04 07:01:07;;;;;;;1.98;1.87;;;;;;;15.69;84.25;95087.69;1597853;89;21018;-55
2022/09/04 07:03:59;;;;;;;4.20;2.40;;;;;;;15.76;84.14;95092.23;1600146;89;21020;-56
2022/09/04 07:06:50;;;;;;;2.65;2.45;;;;;;;15.78;83.89;95093.16;1600228;88;21337;-57
2022/09/04 07:09:22;;;;;;;3.15;2.20;;;;;;;15.78;83.92;95091.17;1600583;89;21240;-56
2022/09/04 07:12:10;;;;;;;3.40;2.45;;;;;;;15.85;83.91;95101.13;1589828;89;21041;-55
2022/09/04 07:14:58;;;;;;;3.62;2.27;;;;;;;15.86;83.11;95099.27;1589449;89;21102;-55
2022/09/04 07:17:46;;;;;;;1.60;1.50;;;;;;;15.87;82.50;95106.36;1586552;89;21657;-55
2022/09/04 07:20:28;;;;;;;2.33;2.10;;;;;;;15.85;82.58;95104.67;1600590;89;21004;-55
2022/09/04 07:23:17;;;;;;;2.58;2.37;;;;;;;15.85;82.64;95108.05;1600697;89;22205;-56
2022/09/04 07:26:19;;;;;;;2.25;2.08;;;;;;;15.86;82.53;95110.38;1617031;87;21073;-56
2022/09/04 07:29:21;;;;;;;2.10;1.80;;;;;;;15.92;82.62;95104.31;1600581;89;21106;-56
2022/09/04 07:32:07;;;;;;;1.70;1.60;;;;;;;16.00;82.60;95108.28;1585318;89;21060;-56
2022/09/04 07:34:57;;;;;;;1.80;1.70;;;;;;;16.08;82.48;95098.34;1572656;89;21014;-57
2022/09/04 07:37:52;;;;;;;6.60;2.10;;;;;;;16.10;81.47;95102.80;1588219;89;21361;-57
2022/09/04 07:40:27;;;;;;;2.20;1.90;;;;;;;16.13;81.34;95114.97;1596493;88;21100;-55
2022/09/04 07:43:20;;;;;;;1.95;1.85;;;;;;;16.20;81.14;95116.77;1592191;89;21027;-56
2022/09/04 07:45:53;;;;;;;1.40;1.30;;;;;;;16.20;81.25;95112.61;1594479;88;21095;-57
2022/09/04 07:48:38;;;;;;;4.22;2.02;;;;;;;16.22;80.57;95106.56;1592432;88;21090;-55
2022/09/04 07:51:12;;;;;;;3.00;1.52;;;;;;;16.29;80.02;95110.53;1591715;87;21275;-57
2022/09/04 07:54:10;;;;;;;3.05;1.60;;;;;;;16.38;79.99;95113.88;1597232;89;21105;-57
2022/09/04 07:57:00;;;;;;;2.52;1.62;;;;;;;16.39;79.20;95119.58;1595386;89;21061;-57
2022/09/04 07:59:44;;;;;;;1.92;1.55;;;;;;;16.34;78.46;95114.66;1589128;88;21040;-56
2022/09/04 08:02:35;;;;;;;1.50;1.30;;;;;;;16.30;78.44;95114.84;1591326;89;21013;-56
2022/09/04 08:05:28;;;;;;;1.87;1.77;;;;;;;16.30;78.14;95119.61;1592125;88;21242;-56
2022/09/04 08:08:37;;;;;;;2.10;2.00;;;;;;;16.26;78.06;95120.41;1595250;88;21088;-57
2022/09/04 08:11:16;;;;;;;3.55;1.70;;;;;;;16.25;78.05;95131.37;1596655;88;21025;-57
2022/09/04 08:14:00;;;;;;;2.90;1.40;;;;;;;16.30;76.79;95128.72;1600335;89;21016;-56
2022/09/04 08:16:42;;;;;;;5.70;1.60;;;;;;;16.31;75.97;95130.25;1553558;89;21004;-57
2022/09/04 08:19:21;;;;;;;1.80;1.70;;;;;;;16.34;75.48;95127.16;1586846;89;21355;-56
2022/09/04 08:21:51;;;;;;;2.17;1.37;;;;;;;16.38;75.75;95125.74;1601136;89;21096;-56
2022/09/04 08:24:51;;;;;;;1.92;1.80;;;;;;;16.47;75.64;95124.30;1583678;89;21608;-57
2022/09/04 08:27:46;;;;;;;4.25;1.45;;;;;;;16.53;74.89;95126.55;1588742;89;21123;-56
2022/09/04 08:30:15;;;;;;;1.37;1.20;;;;;;;16.62;74.96;95129.87;1593742;88;21021;-56
2022/09/04 08:33:00;;;;;;;1.40;1.30;;;;;;;16.68;74.64;95127.95;1588178;88;21706;-57
2022/09/04 08:35:58;;;;;;;2.00;1.40;;;;;;;16.67;73.57;95129.20;1592513;88;21139;-55
2022/09/04 08:38:43;;;;;;;2.02;1.55;;;;;;;16.65;73.79;95137.24;1594777;88;21630;-57
2022/09/04 08:42:06;;;;;;;1.67;1.55;;;;;;;16.65;74.55;95137.24;1594636;89;21164;-55
2022/09/04 08:45:03;;;;;;;;;;;;;;;16.66;73.90;95136.00;1524542;93;21041;-56
2022/09/04 08:47:43;;;;;;;5.60;2.02;;;;;;;16.62;74.07;95139.59;1599433;89;21224;-57
2022/09/04 08:50:34;;;;;;;7.22;1.98;;;;;;;16.59;73.83;95136.38;1592247;88;21037;-59
2022/09/04 08:53:42;;;;;;;1.57;1.47;;;;;;;16.61;74.58;95136.67;1600284;88;21065;-60
2022/09/04 08:56:36;;;;;;;4.45;2.17;;;;;;;16.72;75.12;95141.81;1601140;89;21112;-58
2022/09/04 08:59:54;;;;;;;3.72;1.60;;;;;;;16.80;74.47;95139.42;1569467;88;21080;-58
2022/09/04 09:02:53;;;;;;;1.77;1.40;;;;;;;16.84;73.96;95137.22;1596882;89;21126;-59
2022/09/04 09:05:57;;;;;;;4.10;1.30;;;;;;;16.85;73.64;95138.75;1539926;91;21233;-56
2022/09/04 09:08:45;;;;;;;3.58;1.72;;;;;;;16.92;74.35;95136.36;1537764;92;21035;-57
2022/09/04 09:11:27;;;;;;;1.80;1.67;;;;;;;17.08;73.60;95142.09;1545227;91;21013;-57
2022/09/04 09:14:37;;;;;;;9.00;3.83;;;;;;;17.22;73.02;95129.56;1592776;89;21058;-58
2022/09/04 09:17:15;;;;;;;3.70;1.77;;;;;;;17.27;73.11;95136.48;1596398;89;21920;-56
2022/09/04 09:19:53;;;;;;;1.50;1.40;;;;;;;17.29;72.93;95136.13;1570767;89;21052;-58
2022/09/04 09:22:49;;;;;;;2.58;1.65;;;;;;;17.31;73.54;95137.80;1593077;89;21079;-57
2022/09/04 09:25:25;;;;;;;1.90;1.80;;;;;;;17.34;73.08;95134.72;1594002;88;21053;-56
2022/09/04 09:28:29;;;;;;;2.12;1.80;;;;;;;17.36;72.38;95133.61;1601135;89;21108;-55
2022/09/04 09:31:48;;;;;;;7.90;2.65;;;;;;;17.42;72.32;95136.63;1574083;88;21941;-57
2022/09/04 09:34:36;;;;;;;5.12;2.27;;;;;;;17.55;72.23;95138.48;1585024;89;21084;-56
2022/09/04 09:37:39;;;;;;;4.00;1.60;;;;;;;17.69;70.92;95141.09;1588225;88;21026;-57
2022/09/04 09:40:30;;;;;;;2.00;1.50;;;;;;;17.75;69.80;95144.72;1593295;88;21141;-57
2022/09/04 09:43:25;;;;;;;1.57;1.47;;;;;;;17.80;69.77;95136.45;1597984;89;21068;-57
2022/09/04 09:46:26;;;;;;;2.52;1.85;;;;;;;17.89;70.71;95143.91;1600574;88;21275;-56
2022/09/04 09:49:39;;;;;;;3.80;1.57;;;;;;;17.95;70.11;95139.19;1600586;89;21211;-56
2022/09/04 09:52:26;;;;;;;1.42;1.32;;;;;;;18.07;70.61;95147.84;1599124;89;21148;-56
2022/09/04 09:55:25;;;;;;;1.62;1.17;;;;;;;18.12;69.07;95145.75;1591763;88;21299;-56
2022/09/04 09:58:27;;;;;;;2.35;1.30;;;;;;;18.17;69.25;95143.69;1594558;89;21104;-57
2022/09/04 10:01:27;;;;;;;1.20;1.20;;;;;;;18.21;68.53;95146.38;1595673;89;21170;-56
2022/09/04 10:04:38;;;;;;;1.80;1.10;;;;;;;18.22;67.79;95141.73;1587048;89;21061;-55
2022/09/04 10:07:20;;;;;;;1.62;1.50;;;;;;;18.30;68.09;95143.50;1594476;89;21052;-57
2022/09/04 10:10:35;;;;;;;2.33;1.67;;;;;;;18.29;67.61;95142.73;1600976;89;21143;-57
2022/09/04 10:13:34;;;;;;;3.55;1.20;;;;;;;18.30;68.14;95138.69;1599896;89;21046;-59
2022/09/04 10:16:16;;;;;;;1.57;1.40;;;;;;;18.27;67.77;95143.09;1600741;89;21179;-57
2022/09/04 10:19:35;;;;;;;2.23;1.40;;;;;;;18.24;67.86;95142.00;1599691;89;21050;-57
2022/09/04 10:22:28;;;;;;;1.42;1.32;;;;;;;18.25;67.79;95140.00;1593394;88;21039;-57
2022/09/04 10:25:10;;;;;;;1.40;1.30;;;;;;;18.31;68.98;95137.43;1583857;89;21044;-56
2022/09/04 10:28:10;;;;;;;2.45;1.37;;;;;;;18.35;68.74;95141.41;1556397;89;21078;-56
2022/09/04 10:31:06;;;;;;;1.47;1.37;;;;;;;18.34;69.09;95137.87;1599715;88;21280;-57
2022/09/04 10:34:13;;;;;;;5.17;2.60;;;;;;;18.30;69.26;95140.72;1594651;88;21064;-56
2022/09/04 10:36:57;;;;;;;9.60;2.05;;;;;;;18.25;69.09;95142.14;1594366;89;21037;-56
2022/09/04 12:50:34;;;;;;;6.65;2.17;;;;;;;18.60;68.83;95135.11;1652942;84;21149;-57
2022/09/04 12:53:24;;;;;;;5.12;2.92;;;;;;;18.50;68.85;95140.72;1638870;84;21018;-56
2022/09/04 12:56:29;;;;;;;3.33;2.60;;;;;;;18.33;69.58;95139.13;1659343;82;21581;-57
2022/09/04 12:59:21;;;;;;;4.45;2.83;;;;;;;18.22;70.25;95143.73;1654883;86;21046;-56
2022/09/04 13:02:27;;;;;;;7.05;2.70;;;;;;;18.14;69.84;95146.80;1660673;86;20955;-56
2022/09/04 13:05:06;;;;;;;2.77;2.58;;;;;;;18.08;70.11;95141.02;1658726;86;21266;-56
2022/09/04 13:08:04;;;;;;;2.67;2.47;;;;;;;18.09;70.59;95141.16;1652459;86;21549;-56
2022/09/04 13:11:00;;;;;;;3.83;2.65;;;;;;;18.07;70.56;95146.45;1660662;86;21033;-56
2022/09/04 13:14:06;;;;;;;3.15;2.50;;;;;;;17.98;70.93;95150.12;1660736;86;21030;-57
2022/09/04 13:17:24;;;;;;;9.35;3.08;;;;;;;17.92;71.07;95145.11;1660667;86;21520;-56
2022/09/04 13:20:21;;;;;;;3.25;2.45;;;;;;;17.85;71.37;95150.31;1658889;86;21318;-56
2022/09/04 13:23:12;;;;;;;8.43;2.58;;;;;;;17.80;71.90;95152.41;1657298;86;20997;-55
2022/09/04 13:26:08;;;;;;;4.28;2.90;;;;;;;17.80;72.35;95146.84;1651369;86;21212;-55
2022/09/04 13:28:58;;;;;;;7.67;3.35;;;;;;;17.79;72.58;95151.63;1661468;86;21052;-57
2022/09/04 13:31:59;;;;;;;8.25;3.60;;;;;;;17.82;72.28;95146.47;1657545;86;21048;-56
2022/09/04 13:35:08;;;;;;;11.03;3.98;;;;;;;17.86;72.45;95147.67;1651859;86;21285;-57
2022/09/04 13:38:09;;;;;;;3.30;2.95;;;;;;;17.88;72.51;95153.52;1658566;86;37475;-56
2022/09/04 13:41:25;;;;;;;3.50;2.47;;;;;;;17.92;72.06;95156.25;1660744;84;21456;-57
2022/09/04 13:44:03;;;;;;;3.50;3.00;;;;;;;17.88;71.77;95153.52;1649794;85;21112;-56
2022/09/04 13:46:41;;;;;;;8.03;3.50;;;;;;;17.79;72.16;95156.44;1658152;86;21638;-56
2022/09/04 13:49:16;;;;;;;4.78;3.10;;;;;;;17.74;72.72;95153.70;1651352;86;21163;-56
2022/09/04 13:52:13;;;;;;;4.00;3.12;;;;;;;17.77;72.98;95154.73;1647163;85;21097;-55
2022/09/04 13:54:51;;;;;;;5.05;3.12;;;;;;;17.79;73.15;95162.75;1645560;86;21064;-57
2022/09/04 13:57:26;;;;;;;4.70;2.90;;;;;;;17.79;72.76;95155.80;1642147;85;21000;-55
2022/09/04 13:59:59;;;;;;;4.95;3.05;;;;;;;17.82;72.85;95159.64;1648783;87;20993;-56
2022/09/04 14:02:26;;;;;;;;;;;;;;;17.83;73.23;95151.42;1652736;86;21214;-56
2022/09/04 14:05:03;;;;;;;4.53;3.22;;;;;;;17.84;73.02;95148.78;1650139;86;20170;-55
2022/09/04 14:07:43;;;;;;;12.13;3.10;;;;;;;17.86;73.32;95144.89;1657156;85;21049;-55
2022/09/04 14:10:19;;;;;;;6.62;3.20;;;;;;;17.89;73.00;95155.05;1650583;86;21092;-56
2022/09/04 14:13:01;;;;;;;6.53;3.45;;;;;;;17.91;73.09;95160.28;1650672;85;21520;-54
2022/09/04 14:16:00;;;;;;;5.00;3.87;;;;;;;17.95;72.85;95153.88;1654896;86;21269;-55
2022/09/04 14:18:47;;;;;;;7.45;3.42;;;;;;;18.03;72.92;95155.64;1661077;86;21079;-56
2022/09/04 14:21:36;;;;;;;4.20;3.02;;;;;;;18.08;72.82;95151.55;1659662;85;21029;-56
2022/09/04 14:24:24;;;;;;;5.17;2.90;;;;;;;18.09;72.54;95151.69;1655570;86;21076;-56
2022/09/04 14:27:00;;;;;;;4.22;2.90;;;;;;;18.03;72.21;95150.06;1650713;85;21199;-55
2022/09/04 14:29:55;;;;;;;4.33;3.20;;;;;;;17.93;72.10;95153.61;1636313;86;21151;-55
2022/09/04 14:33:13;;;;;;;6.22;3.40;;;;;;;17.86;71.96;95154.63;1626705;87;21109;-56
2022/09/04 14:35:58;;;;;;;4.12;3.42;;;;;;;17.80;72.61;95163.53;1631858;87;21064;-55
2022/09/04 14:39:01;;;;;;;6.08;4.97;;;;;;;17.76;72.60;95162.33;1632017;86;21028;-56
2022/09/04 14:42:07;;;;;;;9.20;4.22;;;;;;;17.73;72.82;95169.48;1633822;87;21627;-56
2022/09/04 14:45:12;;;;;;;4.05;3.58;;;;;;;17.66;73.17;95168.50;1631159;86;21048;-55
2022/09/04 14:47:53;;;;;;;;;;;;;;;17.56;73.70;95164.28;1635123;87;21524;-55
2022/09/04 14:50:28;;;;;;;5.00;3.50;;;;;;;17.46;74.09;95171.22;1631107;87;20149;-56
2022/09/04 14:53:04;;;;;;;5.35;3.90;;;;;;;17.44;74.72;95165.37;1633778;87;21564;-57
2022/09/04 14:55:41;;;;;;;9.45;4.90;;;;;;;17.45;75.11;95163.48;1627639;87;21107;-57
2022/09/04 14:58:23;;;;;;;4.90;4.12;;;;;;;17.52;75.62;95164.49;1628122;87;21761;-56
2022/09/04 15:01:12;;;;;;;8.70;4.75;;;;;;;17.56;75.54;95167.84;1635727;87;21063;-56
2022/09/04 15:03:56;;;;;;;4.80;3.50;;;;;;;17.54;75.54;95166.78;1615288;87;21016;-55
2022/09/04 15:06:43;;;;;;;5.12;3.62;;;;;;;17.47;75.00;95161.62;1630721;87;21083;-55
2022/09/04 15:09:35;;;;;;;4.75;3.77;;;;;;;17.44;75.10;95157.77;1633774;87;21044;-56
2022/09/04 15:12:26;;;;;;;7.37;3.90;;;;;;;17.44;74.77;95159.16;1629490;87;21897;-55
2022/09/04 15:15:21;;;;;;;6.67;3.83;;;;;;;17.43;74.54;95161.80;1626350;87;20984;-55
2022/09/04 15:18:10;;;;;;;7.30;3.42;;;;;;;17.40;74.70;95164.77;1625765;87;21016;-55
2022/09/04 15:20:39;;;;;;;7.65;3.47;;;;;;;17.28;74.37;95167.97;1631513;87;21020;-56
2022/09/04 15:23:20;;;;;;;4.60;3.50;;;;;;;17.13;74.63;95169.97;1628544;87;21082;-56
2022/09/04 15:25:56;;;;;;;4.28;3.75;;;;;;;17.03;74.84;95173.32;1629048;87;21339;-56
2022/09/04 15:28:40;;;;;;;12.47;3.77;;;;;;;16.94;75.24;95165.09;1600476;87;21062;-56
2022/09/04 15:31:16;;;;;;;7.72;4.00;;;;;;;16.85;75.22;95168.72;1630291;87;21069;-55
2022/09/04 15:33:45;;;;;;;6.28;4.12;;;;;;;16.77;75.63;95173.09;1626657;87;21551;-55